This is the latest recevied weather packets stored in our database for station/object AD6NH. If no packets are shown the sender has not sent any weather packets the latest 10 day(s).
| Time | Temp. | Humidity | Pressure | Rain* | Wind** | Luminosity | Snow |
|---|---|---|---|---|---|---|---|
| 1777513954 | 20.56° C | 53% | 1014.9 hPa | 0 mm | - | - | - |
| 1777513354 | 20.56° C | 53% | 1014.8 hPa | 0 mm | - | - | - |
| 1777512754 | 21.11° C | 50% | 1014.6 hPa | 0 mm | - | - | - |
| 1777512154 | 21.11° C | 49% | 1014.6 hPa | 0 mm | - | - | - |
| 1777511554 | 21.11° C | 47% | 1014.5 hPa | 0 mm | - | - | - |
| 1777510954 | 21.11° C | 49% | 1014.8 hPa | 0 mm | - | - | - |
| 1777510354 | 21.67° C | 49% | 1014.8 hPa | 0 mm | - | - | - |
| 1777509754 | 21.11° C | 50% | 1014.8 hPa | 0 mm | - | - | - |
| 1777509154 | 21.67° C | 48% | 1015 hPa | 0 mm | - | - | - |
| 1777508554 | 21.67° C | 48% | 1015 hPa | 0 mm | - | - | - |
| 1777507954 | 21.67° C | 48% | 1015 hPa | 0 mm | - | - | - |
| 1777507354 | 22.22° C | 48% | 1015 hPa | 0 mm | - | - | - |
| 1777506154 | 22.22° C | 50% | 1014.8 hPa | 0 mm | - | - | - |
| 1777505554 | 23.33° C | 50% | 1014.9 hPa | 0 mm | - | - | - |
| 1777504954 | 22.22° C | 53% | 1014.9 hPa | 0 mm | - | - | - |
| 1777504354 | 22.22° C | 53% | 1014.8 hPa | 0 mm | - | - | - |
| 1777503754 | 22.78° C | 51% | 1015 hPa | 0 mm | - | - | - |
| 1777503154 | 22.78° C | 51% | 1015.2 hPa | 0 mm | - | - | - |
| 1777502554 | 22.78° C | 53% | 1015.2 hPa | 0 mm | - | - | - |
| 1777501954 | 22.78° C | 51% | 1015.3 hPa | 0 mm | - | - | - |
| 1777501354 | 23.89° C | 46% | 1015.5 hPa | 0 mm | - | - | - |
| 1777500754 | 23.33° C | 49% | 1015.5 hPa | 0 mm | - | - | - |
| 1777500154 | 23.33° C | 50% | 1015.7 hPa | 0 mm | - | - | - |
| 1777499554 | 23.33° C | 48% | 1015.8 hPa | 0 mm | - | - | - |
| 1777498954 | 23.89° C | 44% | 1015.7 hPa | 0 mm | - | - | - |
* Rain latest hour (hover to see other rain measurements)
** Current wind speed in m/s (hover to see current wind gust speed)